createdAt,value
2023-01-04T00:01:03.916Z,86.37
2023-01-04T00:04:29.325Z,86.40
2023-01-04T00:07:56.153Z,86.35
2023-01-04T00:11:25.205Z,86.25
2023-01-04T00:14:52.527Z,86.44
2023-01-04T00:18:19.766Z,86.54
2023-01-04T00:21:46.743Z,86.40
2023-01-04T00:25:13.612Z,86.73
2023-01-04T00:28:41.601Z,86.67
2023-01-04T00:32:08.666Z,86.81
2023-01-04T00:35:45.808Z,87.12
2023-01-04T00:39:16.938Z,87.18
2023-01-04T00:42:44.015Z,87.05
2023-01-04T00:46:11.681Z,87.16
2023-01-04T00:49:38.814Z,87.36
2023-01-04T00:53:05.970Z,87.78
2023-01-04T00:56:34.187Z,87.96
2023-01-04T01:00:01.187Z,87.93
2023-01-04T01:03:32.104Z,87.84
2023-01-04T01:07:01.880Z,87.72
2023-01-04T01:10:29.036Z,87.65
2023-01-04T01:13:56.280Z,87.57
2023-01-04T01:17:24.012Z,87.43
2023-01-04T01:20:51.028Z,87.25
2023-01-04T01:24:20.388Z,87.32
2023-01-04T01:27:47.284Z,87.50
2023-01-04T01:31:17.648Z,87.35
2023-01-04T01:34:47.349Z,87.66
2023-01-04T01:38:14.610Z,87.86
2023-01-04T01:41:41.963Z,88.44
2023-01-04T01:45:22.838Z,88.40
2023-01-04T01:48:51.094Z,88.32
2023-01-04T01:52:24.100Z,88.67
2023-01-04T01:55:52.792Z,88.51
2023-01-04T01:59:21.416Z,88.64
2023-01-04T02:02:57.097Z,88.71
2023-01-04T02:06:31.041Z,88.71
2023-01-04T02:09:59.702Z,88.75
2023-01-04T02:13:50.782Z,88.82
2023-01-04T02:17:23.736Z,88.61
2023-01-04T02:20:56.976Z,88.64
2023-01-04T02:24:44.964Z,88.58
2023-01-04T02:28:18.185Z,88.71
2023-01-04T02:31:51.868Z,88.91
2023-01-04T02:35:26.615Z,88.89
2023-01-04T02:39:06.878Z,88.66
2023-01-04T02:42:59.840Z,88.97
2023-01-04T02:46:32.545Z,88.63
2023-01-04T02:50:16.318Z,88.63
2023-01-04T02:53:44.044Z,88.85
2023-01-04T02:57:33.256Z,88.63
2023-01-04T03:01:25.903Z,88.64
2023-01-04T03:05:20.920Z,88.53
2023-01-04T03:08:57.357Z,88.75
2023-01-04T03:12:34.382Z,88.79
2023-01-04T03:16:07.954Z,89.28
2023-01-04T03:19:54.371Z,89.03
2023-01-04T03:23:44.587Z,89.08
2023-01-04T03:27:29.672Z,89.51
2023-01-04T03:31:21.798Z,89.64
2023-01-04T03:35:07.026Z,89.35
2023-01-04T03:38:58.680Z,89.50
2023-01-04T03:42:51.874Z,89.23
2023-01-04T03:46:43.372Z,89.46
2023-01-04T03:50:16.167Z,89.39
2023-01-04T03:53:49.016Z,89.24
2023-01-04T03:57:17.797Z,89.45
2023-01-04T04:00:49.667Z,89.29
2023-01-04T04:04:34.205Z,89.68
2023-01-04T04:08:19.088Z,89.28
2023-01-04T04:11:46.381Z,89.00
2023-01-04T04:15:14.056Z,88.81
2023-01-04T04:18:41.161Z,88.74
2023-01-04T04:22:08.169Z,88.71
2023-01-04T04:25:37.800Z,88.74
2023-01-04T04:29:03.204Z,88.79
2023-01-04T04:32:33.735Z,88.74
2023-01-04T04:36:02.526Z,88.85
2023-01-04T04:39:29.595Z,88.83
2023-01-04T04:42:56.503Z,89.17
2023-01-04T04:46:23.651Z,89.45
2023-01-04T04:49:51.959Z,89.63
2023-01-04T04:53:19.258Z,89.61
2023-01-04T04:56:46.510Z,89.83
2023-01-04T05:00:17.938Z,90.05
2023-01-04T05:03:45.000Z,89.67
2023-01-04T05:07:12.787Z,89.85
2023-01-04T05:10:40.389Z,89.97
2023-01-04T05:14:08.778Z,90.22
2023-01-04T05:17:35.761Z,90.09
2023-01-04T05:21:03.357Z,90.25
2023-01-04T05:24:30.257Z,90.35
2023-01-04T05:27:59.734Z,90.58
2023-01-04T05:31:27.270Z,90.48
2023-01-04T05:34:54.232Z,90.58
2023-01-04T05:38:22.147Z,90.86
2023-01-04T05:42:06.790Z,90.97
2023-01-04T05:45:35.630Z,91.47
2023-01-04T05:49:02.660Z,91.07
2023-01-04T05:52:30.050Z,91.23
2023-01-04T05:55:58.853Z,91.40
2023-01-04T05:59:26.192Z,91.56
2023-01-04T06:02:57.287Z,91.45
2023-01-04T06:06:24.393Z,91.25
2023-01-04T06:09:54.180Z,91.06
2023-01-04T06:13:21.711Z,90.73
2023-01-04T06:16:50.759Z,90.90
2023-01-04T06:20:17.874Z,90.95
2023-01-04T06:23:44.860Z,91.37
2023-01-04T06:27:11.891Z,91.17
2023-01-04T06:30:38.912Z,91.26
2023-01-04T06:34:06.199Z,91.30
2023-01-04T06:37:33.324Z,91.13
2023-01-04T06:41:00.212Z,90.79
2023-01-04T06:44:27.090Z,91.33
2023-01-04T06:47:53.907Z,90.94
2023-01-04T06:51:20.841Z,91.05
2023-01-04T06:54:47.760Z,91.79
2023-01-04T06:58:14.583Z,91.81
2023-01-04T07:01:44.262Z,91.53
2023-01-04T07:05:10.301Z,91.32
2023-01-04T07:08:37.945Z,91.23
2023-01-04T07:12:05.124Z,91.11
2023-01-04T07:15:38.656Z,91.13
2023-01-04T07:19:09.927Z,91.21
2023-01-04T07:22:36.855Z,91.16
2023-01-04T07:26:05.343Z,91.43
2023-01-04T07:29:35.164Z,90.91
2023-01-04T07:33:00.798Z,91.09
2023-01-04T07:36:27.904Z,90.85
2023-01-04T07:39:54.906Z,90.82
2023-01-04T07:43:27.670Z,90.65
2023-01-04T07:46:56.567Z,90.42
2023-01-04T07:50:26.977Z,90.11
2023-01-04T07:53:54.108Z,90.04
2023-01-04T07:57:21.982Z,89.48
2023-01-04T08:00:49.053Z,89.39
2023-01-04T08:04:16.761Z,89.05
2023-01-04T08:07:43.960Z,88.87
2023-01-04T08:11:14.376Z,88.72
2023-01-04T08:14:41.446Z,88.55
2023-01-04T08:18:08.692Z,88.46
2023-01-04T08:21:39.961Z,88.36
2023-01-04T08:25:08.074Z,88.17
2023-01-04T08:28:36.581Z,88.01
2023-01-04T08:32:07.628Z,88.08
2023-01-04T08:35:34.772Z,87.77
2023-01-04T08:39:04.858Z,87.87
2023-01-04T08:42:32.259Z,87.43
2023-01-04T08:45:59.876Z,87.44
2023-01-04T08:49:28.195Z,87.13
2023-01-04T08:52:55.580Z,87.13
2023-01-04T08:56:22.616Z,86.94
2023-01-04T08:59:50.074Z,86.83
2023-01-04T09:03:17.075Z,86.62
2023-01-04T09:06:56.186Z,86.42
2023-01-04T09:10:23.349Z,85.88
2023-01-04T09:13:51.446Z,85.58
2023-01-04T09:17:18.355Z,85.45
2023-01-04T09:20:45.662Z,85.19
2023-01-04T09:24:14.106Z,85.07
2023-01-04T09:27:41.418Z,84.98
2023-01-04T09:31:16.235Z,84.66
2023-01-04T09:34:43.368Z,84.45
2023-01-04T09:38:10.882Z,84.24
2023-01-04T09:41:44.376Z,84.28
2023-01-04T09:45:24.503Z,83.78
2023-01-04T09:48:55.220Z,83.70
2023-01-04T09:52:26.528Z,83.74
2023-01-04T09:55:57.435Z,83.39
2023-01-04T09:59:31.052Z,82.74
2023-01-04T10:03:05.028Z,82.56
2023-01-04T10:06:38.284Z,82.47
2023-01-04T10:10:06.165Z,82.32
2023-01-04T10:13:50.151Z,82.32
2023-01-04T10:18:10.347Z,82.44
2023-01-04T10:21:34.283Z,82.65
2023-01-04T10:25:19.164Z,82.65
2023-01-04T10:29:06.809Z,82.62
2023-01-04T10:32:40.874Z,82.53
2023-01-04T10:36:24.567Z,82.47
2023-01-04T10:39:55.194Z,82.43
2023-01-04T10:44:09.874Z,82.47
2023-01-04T10:47:24.736Z,82.29
2023-01-04T10:51:03.554Z,82.00
2023-01-04T10:54:45.029Z,81.99
2023-01-04T10:58:21.014Z,81.55
2023-01-04T11:01:52.076Z,81.59
2023-01-04T11:05:25.572Z,81.21
2023-01-04T11:08:56.347Z,80.89
2023-01-04T11:12:24.838Z,80.83
2023-01-04T11:15:53.197Z,80.95
2023-01-04T11:19:21.132Z,81.45
2023-01-04T11:22:54.707Z,81.41
2023-01-04T11:26:33.037Z,81.95
2023-01-04T11:30:05.115Z,82.71
2023-01-04T11:33:51.640Z,83.34
2023-01-04T11:37:34.541Z,83.96
2023-01-04T11:41:05.634Z,84.32
2023-01-04T11:44:34.743Z,84.56
2023-01-04T11:48:10.855Z,84.76
2023-01-04T11:51:43.112Z,85.45
2023-01-04T11:55:29.215Z,85.99
2023-01-04T11:59:20.645Z,86.68
2023-01-04T12:03:01.575Z,87.11
2023-01-04T12:06:36.429Z,87.32
2023-01-04T12:10:13.832Z,88.12
2023-01-04T12:13:43.936Z,88.05
2023-01-04T12:17:20.427Z,88.40
2023-01-04T12:20:47.847Z,88.70
2023-01-04T12:24:26.472Z,88.82
2023-01-04T12:27:55.537Z,89.10
2023-01-04T12:31:35.846Z,89.52
2023-01-04T12:35:02.723Z,89.59
2023-01-04T12:39:07.590Z,89.98
2023-01-04T12:42:34.814Z,90.28
2023-01-04T12:46:59.117Z,90.19
2023-01-04T12:50:29.183Z,90.19
2023-01-04T12:53:59.237Z,90.40
2023-01-04T12:57:37.284Z,90.74
2023-01-04T13:01:28.512Z,91.42
2023-01-04T13:05:25.752Z,91.70
2023-01-04T13:08:53.164Z,91.93
2023-01-04T13:12:37.413Z,92.31
2023-01-04T13:16:29.209Z,92.53
2023-01-04T13:19:57.112Z,92.95
2023-01-04T13:23:25.663Z,93.53
2023-01-04T13:26:53.904Z,93.74
2023-01-04T13:30:34.427Z,94.01
2023-01-04T13:34:01.317Z,94.55
2023-01-04T13:37:33.683Z,94.65
2023-01-04T13:41:00.583Z,95.15
2023-01-04T13:45:18.716Z,95.21
2023-01-04T13:48:40.974Z,95.49
2023-01-04T13:52:49.778Z,95.50
2023-01-04T13:56:22.476Z,95.20
2023-01-04T13:59:52.410Z,95.37
2023-01-04T14:03:34.087Z,95.35
2023-01-04T14:07:02.862Z,95.42
2023-01-04T14:10:30.021Z,95.77
2023-01-04T14:13:56.998Z,95.20
2023-01-04T14:17:29.715Z,95.79
2023-01-04T14:20:56.728Z,95.85
2023-01-04T14:25:10.529Z,95.63
2023-01-04T14:28:40.337Z,95.56
2023-01-04T14:32:13.931Z,95.97
2023-01-04T14:35:46.430Z,96.31
2023-01-04T14:39:28.981Z,96.69
2023-01-04T14:42:56.923Z,97.00
2023-01-04T14:46:24.881Z,97.09
2023-01-04T14:49:52.439Z,97.28
2023-01-04T14:53:21.354Z,97.02
2023-01-04T14:56:48.397Z,97.60
2023-01-04T15:00:19.763Z,97.37
2023-01-04T15:03:47.203Z,97.94
2023-01-04T15:07:35.300Z,98.71
2023-01-04T15:11:02.493Z,98.95
2023-01-04T15:14:29.576Z,99.46
2023-01-04T15:17:56.438Z,99.22
2023-01-04T15:21:23.376Z,99.70
2023-01-04T15:24:51.029Z,99.42
2023-01-04T15:28:21.662Z,99.83
2023-01-04T15:31:49.148Z,99.74
2023-01-04T15:35:17.684Z,99.95
2023-01-04T15:38:44.897Z,99.64
2023-01-04T15:42:34.436Z,99.44
2023-01-04T15:46:08.575Z,99.38
2023-01-04T15:49:36.024Z,99.62
2023-01-04T15:53:03.348Z,99.40
2023-01-04T15:56:30.436Z,98.88
2023-01-04T15:59:57.360Z,99.10
2023-01-04T16:03:24.389Z,99.37
2023-01-04T16:06:51.505Z,99.11
2023-01-04T16:10:19.056Z,98.87
2023-01-04T16:13:47.644Z,99.31
2023-01-04T16:17:14.543Z,99.23
2023-01-04T16:20:47.315Z,99.39
2023-01-04T16:24:44.877Z,99.40
2023-01-04T16:28:02.091Z,99.86
2023-01-04T16:31:33.478Z,99.75
2023-01-04T16:35:00.321Z,99.18
2023-01-04T16:38:28.016Z,99.39
2023-01-04T16:41:55.588Z,99.81
2023-01-04T16:45:25.787Z,99.92
2023-01-04T16:48:54.877Z,99.98
2023-01-04T16:52:21.847Z,99.87
2023-01-04T16:55:50.496Z,99.99
2023-01-04T16:59:20.088Z,100.00
2023-01-04T17:02:46.913Z,100.00
2023-01-04T17:06:19.846Z,100.00
2023-01-04T17:09:46.883Z,100.00
2023-01-04T17:13:13.820Z,100.00
2023-01-04T17:16:40.996Z,100.00
2023-01-04T17:20:10.167Z,100.00
2023-01-04T17:23:42.831Z,100.00
2023-01-04T17:30:51.585Z,100.00
2023-01-04T17:34:23.195Z,100.00
2023-01-04T17:37:50.897Z,100.00
2023-01-04T17:41:20.324Z,100.00
2023-01-04T17:44:49.513Z,100.00
2023-01-04T17:48:18.808Z,100.00
2023-01-04T17:51:46.661Z,100.00
2023-01-04T17:55:14.218Z,100.00
2023-01-04T17:58:43.453Z,100.00
2023-01-04T18:02:09.915Z,100.00
2023-01-04T18:05:45.297Z,100.00
2023-01-04T18:09:22.263Z,100.00
2023-01-04T18:12:51.213Z,100.00
2023-01-04T18:16:25.343Z,100.00
2023-01-04T18:19:52.523Z,100.00
2023-01-04T18:23:25.751Z,100.00
2023-01-04T18:27:20.419Z,100.00
2023-01-04T18:30:40.659Z,100.00
2023-01-04T18:34:07.726Z,100.00
2023-01-04T18:37:35.539Z,100.00
2023-01-04T18:41:04.508Z,100.00
2023-01-04T18:44:35.908Z,100.00
2023-01-04T18:48:04.110Z,100.00
2023-01-04T18:51:31.049Z,100.00
2023-01-04T18:55:00.137Z,100.00
2023-01-04T18:58:26.948Z,100.00
2023-01-04T19:01:54.033Z,100.00
2023-01-04T19:05:21.187Z,100.00
2023-01-04T19:08:53.590Z,100.00
2023-01-04T19:12:23.311Z,100.00
2023-01-04T19:15:50.512Z,100.00
2023-01-04T19:19:17.622Z,100.00
2023-01-04T19:22:44.601Z,100.00
2023-01-04T19:26:14.206Z,100.00
2023-01-04T19:29:41.157Z,100.00
2023-01-04T19:33:09.217Z,100.00
2023-01-04T19:36:39.336Z,100.00
2023-01-04T19:40:07.856Z,100.00
2023-01-04T19:43:35.193Z,100.00
2023-01-04T19:47:02.509Z,100.00
2023-01-04T19:50:29.810Z,100.00
2023-01-04T19:54:01.512Z,100.00
2023-01-04T19:57:28.476Z,100.00
2023-01-04T20:00:55.590Z,100.00
2023-01-04T20:04:22.736Z,100.00
2023-01-04T20:07:50.898Z,100.00
2023-01-04T20:11:18.133Z,100.00
2023-01-04T20:14:46.977Z,100.00
2023-01-04T20:18:14.558Z,100.00
2023-01-04T20:21:41.857Z,100.00
2023-01-04T20:25:10.956Z,100.00
2023-01-04T20:28:38.656Z,100.00
2023-01-04T20:32:06.218Z,100.00
2023-01-04T20:35:33.116Z,100.00
2023-01-04T20:39:03.514Z,100.00
2023-01-04T20:42:48.412Z,100.00
2023-01-04T20:46:17.890Z,100.00
2023-01-04T20:49:45.053Z,100.00
2023-01-04T20:53:13.456Z,100.00
2023-01-04T20:56:40.964Z,100.00
2023-01-04T21:00:10.674Z,100.00
2023-01-04T21:03:38.854Z,100.00
2023-01-04T21:07:06.181Z,100.00
2023-01-04T21:10:33.137Z,100.00
2023-01-04T21:14:01.905Z,100.00
2023-01-04T21:17:28.757Z,100.00
2023-01-04T21:20:56.250Z,100.00
2023-01-04T21:24:23.310Z,100.00
2023-01-04T21:27:52.773Z,100.00
2023-01-04T21:31:23.814Z,100.00
2023-01-04T21:34:50.883Z,100.00
2023-01-04T21:38:17.712Z,100.00
2023-01-04T21:41:51.229Z,100.00
2023-01-04T21:45:19.569Z,100.00
2023-01-04T21:48:47.684Z,100.00
2023-01-04T21:52:18.835Z,100.00
2023-01-04T21:55:45.904Z,100.00
2023-01-04T21:59:12.911Z,100.00
2023-01-04T22:02:42.468Z,100.00
2023-01-04T22:06:08.854Z,100.00
2023-01-04T22:09:36.823Z,100.00
2023-01-04T22:13:12.644Z,100.00
2023-01-04T22:16:40.085Z,99.72
2023-01-04T22:20:11.187Z,99.55
2023-01-04T22:23:38.782Z,99.50
2023-01-04T22:27:06.234Z,99.42
2023-01-04T22:30:33.600Z,99.29
2023-01-04T22:34:00.677Z,99.42
2023-01-04T22:37:27.708Z,99.60
2023-01-04T22:40:54.585Z,99.68
2023-01-04T22:44:21.641Z,99.94
2023-01-04T22:47:48.919Z,99.98
2023-01-04T22:51:18.285Z,100.00
2023-01-04T22:54:45.241Z,100.00
2023-01-04T22:58:12.243Z,100.00
2023-01-04T23:01:39.234Z,100.00
2023-01-04T23:05:07.161Z,100.00
2023-01-04T23:08:33.999Z,100.00
2023-01-04T23:12:01.091Z,100.00
2023-01-04T23:15:28.095Z,100.00
2023-01-04T23:18:55.007Z,100.00
2023-01-04T23:22:22.711Z,100.00
2023-01-04T23:25:49.554Z,100.00
2023-01-04T23:29:16.638Z,100.00
2023-01-04T23:32:44.234Z,100.00
2023-01-04T23:36:14.200Z,100.00
2023-01-04T23:39:41.634Z,100.00
2023-01-04T23:43:08.557Z,100.00
2023-01-04T23:46:35.628Z,100.00
2023-01-04T23:50:02.557Z,100.00
2023-01-04T23:53:29.986Z,100.00
2023-01-04T23:56:58.004Z,100.00
